createdAt,value
2023-03-19T00:00:28.309Z,1.30
2023-03-19T00:02:55.661Z,1.13
2023-03-19T00:05:22.994Z,1.58
2023-03-19T00:07:50.036Z,1.88
2023-03-19T00:10:17.210Z,1.60
2023-03-19T00:12:44.291Z,1.67
2023-03-19T00:15:14.307Z,1.60
2023-03-19T00:17:42.939Z,1.95
2023-03-19T00:20:12.143Z,1.83
2023-03-19T00:22:39.980Z,1.75
2023-03-19T00:25:08.457Z,1.98
2023-03-19T00:27:37.405Z,1.73
2023-03-19T00:30:06.064Z,2.00
2023-03-19T00:32:33.963Z,2.30
2023-03-19T00:35:01.400Z,2.30
2023-03-19T00:37:28.940Z,1.60
2023-03-19T00:39:56.816Z,1.83
2023-03-19T00:42:24.216Z,2.00
2023-03-19T00:44:51.559Z,2.15
2023-03-19T00:47:18.711Z,2.10
2023-03-19T00:49:45.720Z,1.95
2023-03-19T00:52:12.863Z,2.05
2023-03-19T00:54:40.142Z,2.10
2023-03-19T00:57:07.278Z,2.00
2023-03-19T00:59:34.387Z,2.38
2023-03-19T01:02:01.511Z,2.15
2023-03-19T01:04:29.457Z,2.33
2023-03-19T01:06:58.295Z,2.15
2023-03-19T01:09:25.577Z,2.35
2023-03-19T01:11:52.712Z,2.17
2023-03-19T01:14:19.755Z,2.50
2023-03-19T01:16:46.937Z,2.20
2023-03-19T01:19:14.383Z,2.20
2023-03-19T01:21:46.041Z,3.42
2023-03-19T01:24:13.637Z,2.42
2023-03-19T01:26:41.172Z,2.63
2023-03-19T01:29:09.451Z,2.80
2023-03-19T01:31:37.282Z,3.00
2023-03-19T01:34:04.495Z,2.70
2023-03-19T01:36:32.245Z,2.45
2023-03-19T01:38:59.840Z,2.33
2023-03-19T01:41:27.283Z,2.63
2023-03-19T01:43:54.356Z,3.20
2023-03-19T01:46:28.872Z,3.80
2023-03-19T01:48:59.948Z,3.35
2023-03-19T01:51:32.181Z,3.05
2023-03-19T01:54:02.580Z,2.92
2023-03-19T01:56:32.789Z,3.17
2023-03-19T01:59:06.645Z,3.95
2023-03-19T02:01:37.897Z,3.28
2023-03-19T02:04:06.126Z,2.90
2023-03-19T02:06:34.852Z,3.15
2023-03-19T02:09:02.792Z,3.30
2023-03-19T02:11:30.906Z,3.30
2023-03-19T02:13:58.182Z,3.50
2023-03-19T02:16:25.586Z,3.42
2023-03-19T02:18:53.732Z,4.07
2023-03-19T02:21:21.768Z,3.97
2023-03-19T02:23:57.531Z,3.50
2023-03-19T02:26:28.660Z,3.40
2023-03-19T02:28:55.759Z,3.50
2023-03-19T02:31:23.714Z,3.60
2023-03-19T02:34:02.290Z,3.30
2023-03-19T02:36:37.140Z,3.30
2023-03-19T02:39:08.723Z,3.78
2023-03-19T02:41:38.319Z,3.65
2023-03-19T02:44:07.386Z,3.78
2023-03-19T02:46:34.531Z,3.85
2023-03-19T02:49:01.624Z,3.42
2023-03-19T02:51:28.976Z,3.72
2023-03-19T02:53:56.030Z,4.05
2023-03-19T02:56:23.104Z,3.50
2023-03-19T02:58:50.145Z,3.88
2023-03-19T03:01:18.579Z,3.30
2023-03-19T03:03:45.906Z,3.95
2023-03-19T03:06:13.871Z,4.07
2023-03-19T03:08:41.236Z,3.83
2023-03-19T03:11:08.312Z,4.32
2023-03-19T03:13:35.941Z,4.30
2023-03-19T03:16:03.026Z,4.53
2023-03-19T03:18:31.179Z,4.30
2023-03-19T03:20:58.328Z,4.10
2023-03-19T03:23:26.356Z,4.22
2023-03-19T03:25:53.364Z,4.47
2023-03-19T03:28:20.419Z,4.53
2023-03-19T03:30:47.628Z,4.47
2023-03-19T03:33:15.764Z,4.57
2023-03-19T03:35:42.991Z,5.60
2023-03-19T03:38:10.013Z,6.43
2023-03-19T03:40:37.497Z,6.65
2023-03-19T03:43:04.575Z,6.10
2023-03-19T03:45:32.103Z,6.43
2023-03-19T03:47:59.690Z,6.63
2023-03-19T03:50:27.961Z,6.72
2023-03-19T03:52:54.944Z,7.50
2023-03-19T03:55:22.021Z,7.63
2023-03-19T03:57:49.480Z,7.78
2023-03-19T04:00:16.600Z,8.00
2023-03-19T04:02:43.672Z,7.28
2023-03-19T04:05:10.907Z,8.07
2023-03-19T04:07:38.466Z,8.98
2023-03-19T04:10:05.814Z,9.38
2023-03-19T04:12:33.304Z,9.48
2023-03-19T04:15:01.079Z,8.52
2023-03-19T04:17:29.319Z,9.15
2023-03-19T04:19:56.461Z,8.70
2023-03-19T04:22:23.538Z,8.85
2023-03-19T04:24:50.680Z,9.43
2023-03-19T04:27:17.758Z,9.13
2023-03-19T04:29:44.785Z,9.63
2023-03-19T04:32:11.848Z,9.75
2023-03-19T04:34:38.857Z,9.95
2023-03-19T04:37:06.245Z,9.65
2023-03-19T04:39:33.466Z,9.90
2023-03-19T04:42:00.967Z,9.65
2023-03-19T04:44:28.358Z,9.10
2023-03-19T04:46:55.521Z,10.07
2023-03-19T04:49:22.604Z,10.55
2023-03-19T04:51:49.707Z,10.32
2023-03-19T04:54:16.760Z,10.50
2023-03-19T04:56:44.019Z,10.60
2023-03-19T04:59:11.082Z,10.15
2023-03-19T05:01:38.249Z,10.57
2023-03-19T05:04:05.668Z,9.93
2023-03-19T05:06:33.144Z,10.35
2023-03-19T05:09:03.910Z,10.60
2023-03-19T05:11:31.508Z,11.00
2023-03-19T05:13:58.573Z,9.88
2023-03-19T05:16:25.752Z,10.68
2023-03-19T05:18:53.216Z,11.15
2023-03-19T05:21:20.589Z,10.85
2023-03-19T05:23:52.220Z,10.02
2023-03-19T05:26:19.284Z,11.18
2023-03-19T05:28:46.332Z,12.00
2023-03-19T05:31:13.466Z,11.68
2023-03-19T05:33:40.525Z,11.85
2023-03-19T05:36:08.117Z,11.05
2023-03-19T05:38:35.178Z,11.05
2023-03-19T05:41:05.115Z,12.02
2023-03-19T05:43:32.553Z,11.18
2023-03-19T05:46:00.222Z,12.60
2023-03-19T05:48:27.431Z,11.85
2023-03-19T05:50:54.499Z,11.73
2023-03-19T05:53:23.041Z,11.80
2023-03-19T05:55:50.090Z,12.40
2023-03-19T05:58:17.103Z,12.13
2023-03-19T06:00:44.196Z,12.48
2023-03-19T06:03:11.268Z,11.98
2023-03-19T06:05:38.648Z,12.20
2023-03-19T06:08:06.214Z,13.02
2023-03-19T06:10:36.408Z,13.27
2023-03-19T06:13:05.433Z,12.60
2023-03-19T06:15:32.867Z,13.23
2023-03-19T06:18:00.352Z,12.13
2023-03-19T06:20:27.434Z,12.18
2023-03-19T06:22:54.540Z,12.18
2023-03-19T06:25:22.106Z,13.23
2023-03-19T06:27:49.667Z,12.80
2023-03-19T06:30:17.052Z,13.10
2023-03-19T06:32:44.182Z,13.65
2023-03-19T06:35:11.306Z,13.75
2023-03-19T06:37:38.538Z,12.35
2023-03-19T06:40:06.330Z,12.73
2023-03-19T06:42:33.770Z,14.32
2023-03-19T06:45:01.138Z,13.70
2023-03-19T06:47:28.561Z,14.35
2023-03-19T06:49:56.527Z,13.82
2023-03-19T06:52:23.545Z,13.90
2023-03-19T06:54:50.948Z,12.80
2023-03-19T06:57:18.045Z,14.25
2023-03-19T06:59:45.696Z,14.90
2023-03-19T07:02:12.927Z,14.23
2023-03-19T07:04:40.018Z,14.95
2023-03-19T07:07:07.128Z,15.15
2023-03-19T07:09:34.405Z,15.40
2023-03-19T07:12:01.517Z,16.05
2023-03-19T07:14:29.106Z,15.73
2023-03-19T07:16:56.182Z,15.73
2023-03-19T07:19:23.212Z,16.05
2023-03-19T07:21:50.556Z,18.20
2023-03-19T07:24:17.669Z,18.02
2023-03-19T07:26:44.770Z,19.58
2023-03-19T07:29:12.440Z,18.33
2023-03-19T07:31:39.939Z,20.08
2023-03-19T07:34:07.080Z,21.38
2023-03-19T07:36:34.149Z,23.83
2023-03-19T07:39:01.330Z,24.67
2023-03-19T07:41:28.570Z,28.95
2023-03-19T07:43:56.057Z,28.35
2023-03-19T07:46:23.298Z,28.08
2023-03-19T07:48:50.708Z,28.30
2023-03-19T07:51:17.938Z,27.17
2023-03-19T07:53:45.073Z,26.58
2023-03-19T07:56:13.141Z,26.33
2023-03-19T07:58:40.629Z,23.75
2023-03-19T08:01:08.216Z,23.92
2023-03-19T08:03:35.367Z,22.88
2023-03-19T08:06:03.927Z,24.10
2023-03-19T08:08:31.164Z,23.83
2023-03-19T08:10:59.006Z,23.25
2023-03-19T08:13:26.379Z,22.75
2023-03-19T08:15:53.629Z,21.95
2023-03-19T08:18:21.108Z,20.95
2023-03-19T08:20:48.732Z,21.48
2023-03-19T08:23:16.249Z,20.73
2023-03-19T08:25:43.356Z,20.20
2023-03-19T08:28:10.532Z,19.00
2023-03-19T08:30:38.655Z,18.10
2023-03-19T08:33:06.303Z,20.13
2023-03-19T08:35:33.402Z,20.42
2023-03-19T08:38:00.597Z,19.92
2023-03-19T08:40:27.798Z,20.15
2023-03-19T08:42:55.988Z,19.75
2023-03-19T08:45:23.102Z,20.48
2023-03-19T08:47:50.683Z,19.95
2023-03-19T08:50:18.080Z,18.40
2023-03-19T08:52:45.445Z,17.45
2023-03-19T08:55:12.628Z,17.00
2023-03-19T08:57:39.746Z,15.82
2023-03-19T09:00:08.071Z,15.82
2023-03-19T09:02:35.432Z,16.02
2023-03-19T09:05:02.533Z,15.80
2023-03-19T09:07:30.534Z,14.80
2023-03-19T09:09:57.593Z,16.65
2023-03-19T09:12:24.712Z,15.73
2023-03-19T09:14:51.999Z,16.25
2023-03-19T09:17:19.102Z,14.90
2023-03-19T09:19:46.197Z,14.02
2023-03-19T09:22:13.279Z,15.38
2023-03-19T09:24:40.827Z,14.25
2023-03-19T09:27:08.187Z,13.18
2023-03-19T09:29:35.304Z,13.85
2023-03-19T09:32:02.543Z,18.25
2023-03-19T09:34:30.599Z,13.32
2023-03-19T09:36:57.757Z,16.20
2023-03-19T09:39:24.839Z,14.40
2023-03-19T09:42:03.631Z,13.70
2023-03-19T09:44:34.857Z,13.32
2023-03-19T09:47:23.958Z,14.60
2023-03-19T09:49:57.684Z,14.40
2023-03-19T09:55:32.567Z,14.93
2023-03-19T09:58:02.587Z,17.13
2023-03-19T10:00:35.717Z,17.92
2023-03-19T10:03:08.904Z,14.85
2023-03-19T10:06:09.063Z,13.90
2023-03-19T10:08:49.411Z,14.80
2023-03-19T10:11:43.979Z,17.05
2023-03-19T10:14:41.252Z,14.73
2023-03-19T10:17:16.964Z,15.50
2023-03-19T10:19:46.679Z,15.23
2023-03-19T10:22:21.391Z,14.70
2023-03-19T10:24:50.853Z,12.88
2023-03-19T10:27:21.686Z,14.50
2023-03-19T10:29:48.894Z,15.10
2023-03-19T10:32:34.568Z,14.18
2023-03-19T10:35:16.335Z,14.85
2023-03-19T10:37:43.707Z,13.98
2023-03-19T10:40:37.157Z,14.02
2023-03-19T10:43:14.500Z,13.87
2023-03-19T10:45:42.040Z,15.15
2023-03-19T10:48:15.318Z,14.02
2023-03-19T10:50:44.885Z,15.32
2023-03-19T10:53:14.650Z,15.35
2023-03-19T10:55:48.424Z,15.07
2023-03-19T11:00:47.347Z,13.60
2023-03-19T11:03:32.758Z,15.48
2023-03-19T11:06:07.960Z,13.15
2023-03-19T11:08:37.708Z,13.75
2023-03-19T11:11:04.822Z,13.32
2023-03-19T11:13:35.962Z,14.30
2023-03-19T11:16:04.263Z,12.57
2023-03-19T11:18:38.991Z,13.02
2023-03-19T11:21:19.962Z,12.65
2023-03-19T11:24:00.627Z,11.65
2023-03-19T11:26:29.404Z,12.52
2023-03-19T11:29:03.971Z,14.18
2023-03-19T11:31:41.561Z,14.05
2023-03-19T11:34:35.991Z,14.45
2023-03-19T11:39:57.085Z,13.85
2023-03-19T11:43:01.276Z,15.98
2023-03-19T11:46:05.560Z,15.45
2023-03-19T11:48:48.180Z,15.32
2023-03-19T11:51:31.141Z,15.48
2023-03-19T11:54:03.789Z,15.82
2023-03-19T11:56:55.524Z,16.45
2023-03-19T11:59:36.616Z,15.55
2023-03-19T12:02:25.121Z,14.60
2023-03-19T12:05:19.398Z,12.82
2023-03-19T12:08:10.497Z,13.32
2023-03-19T12:11:03.969Z,13.48
2023-03-19T12:13:39.739Z,13.73
2023-03-19T12:16:26.242Z,13.18
2023-03-19T12:19:28.153Z,13.65
2023-03-19T12:22:32.548Z,12.95
2023-03-19T12:25:06.076Z,13.35
2023-03-19T12:27:42.792Z,13.23
2023-03-19T12:30:15.652Z,12.98
2023-03-19T12:32:58.102Z,12.03
2023-03-19T12:35:33.792Z,14.15
2023-03-19T12:38:29.622Z,14.05
2023-03-19T12:41:13.109Z,14.13
2023-03-19T12:43:53.939Z,12.02
2023-03-19T12:46:29.921Z,13.32
2023-03-19T12:49:30.684Z,12.85
2023-03-19T12:52:07.272Z,14.27
2023-03-19T12:54:41.171Z,12.52
2023-03-19T12:57:15.075Z,13.35
2023-03-19T13:00:01.297Z,12.40
2023-03-19T13:02:38.408Z,11.77
2023-03-19T13:05:14.729Z,11.15
2023-03-19T13:08:19.635Z,12.57
2023-03-19T13:10:46.628Z,12.38
2023-03-19T13:13:27.003Z,12.73
2023-03-19T13:16:04.750Z,10.98
2023-03-19T13:18:57.658Z,10.57
2023-03-19T13:21:30.852Z,10.82
2023-03-19T13:24:26.048Z,11.30
2023-03-19T13:26:55.494Z,11.65
2023-03-19T13:29:25.613Z,11.63
2023-03-19T13:32:00.564Z,10.48
2023-03-19T13:34:33.844Z,9.93
2023-03-19T13:37:10.312Z,10.35
2023-03-19T13:39:38.309Z,11.07
2023-03-19T13:42:20.257Z,10.73
2023-03-19T13:45:13.240Z,10.15
2023-03-19T13:47:43.224Z,10.32
2023-03-19T13:50:15.913Z,9.77
2023-03-19T13:52:50.078Z,9.70
2023-03-19T13:55:32.737Z,9.82
2023-03-19T13:58:37.785Z,10.27
2023-03-19T14:01:06.882Z,10.25
2023-03-19T14:03:36.661Z,10.88
2023-03-19T14:06:04.463Z,11.35
2023-03-19T14:08:47.317Z,9.35
2023-03-19T14:11:31.130Z,10.25
2023-03-19T14:14:02.983Z,9.43
2023-03-19T14:16:35.055Z,9.38
2023-03-19T14:19:05.115Z,10.52
2023-03-19T14:21:46.412Z,10.15
2023-03-19T14:27:35.996Z,10.38
2023-03-19T14:30:10.320Z,10.65
2023-03-19T14:32:40.999Z,10.88
2023-03-19T14:35:14.167Z,11.80
2023-03-19T14:37:49.214Z,10.73
2023-03-19T14:40:18.991Z,9.52
2023-03-19T14:43:17.717Z,9.93
2023-03-19T14:46:08.579Z,10.77
2023-03-19T14:49:12.962Z,10.45
2023-03-19T14:51:53.577Z,9.60
2023-03-19T14:54:42.649Z,9.63
2023-03-19T14:57:26.438Z,9.25
2023-03-19T14:59:54.551Z,10.65
2023-03-19T15:02:35.593Z,10.15
2023-03-19T15:05:07.525Z,11.00
2023-03-19T15:07:43.520Z,10.45
2023-03-19T15:10:35.506Z,11.25
2023-03-19T15:13:05.399Z,10.75
2023-03-19T15:15:50.825Z,10.73
2023-03-19T15:18:20.897Z,10.63
2023-03-19T15:20:55.388Z,11.52
2023-03-19T15:23:28.381Z,11.32
2023-03-19T15:26:02.005Z,11.68
2023-03-19T15:28:37.580Z,12.13
2023-03-19T15:31:26.438Z,12.15
2023-03-19T15:33:53.901Z,12.00
2023-03-19T15:36:31.221Z,10.48
2023-03-19T15:39:05.412Z,10.57
2023-03-19T15:41:36.415Z,9.80
2023-03-19T15:44:08.040Z,10.07
2023-03-19T15:46:40.200Z,10.70
2023-03-19T15:49:15.919Z,11.27
2023-03-19T15:51:49.283Z,11.32
2023-03-19T15:54:16.366Z,11.00
2023-03-19T15:56:43.534Z,11.27
2023-03-19T15:59:11.038Z,10.90
2023-03-19T16:01:38.549Z,12.05
2023-03-19T16:04:08.406Z,12.07
2023-03-19T16:06:40.076Z,14.15
2023-03-19T16:09:30.718Z,11.93
2023-03-19T16:11:57.912Z,11.73
2023-03-19T16:14:41.209Z,13.90
2023-03-19T16:17:17.134Z,12.57
2023-03-19T16:19:49.941Z,12.30
2023-03-19T16:22:21.437Z,12.47
2023-03-19T16:24:50.574Z,12.70
2023-03-19T16:27:39.699Z,12.90
2023-03-19T16:30:21.478Z,13.18
2023-03-19T16:33:03.650Z,12.57
2023-03-19T16:35:33.667Z,13.02
2023-03-19T16:38:12.197Z,14.23
2023-03-19T16:40:43.172Z,13.40
2023-03-19T16:43:21.688Z,13.00
2023-03-19T16:46:05.985Z,12.73
2023-03-19T16:48:33.162Z,13.00
2023-03-19T16:51:01.076Z,13.07
2023-03-19T16:53:32.018Z,13.32
2023-03-19T16:56:01.654Z,13.50
2023-03-19T16:58:37.263Z,13.73
2023-03-19T17:01:24.764Z,14.10
2023-03-19T17:03:53.117Z,14.30
2023-03-19T17:06:22.192Z,16.77
2023-03-19T17:08:49.381Z,16.17
2023-03-19T17:11:24.987Z,16.35
2023-03-19T17:13:54.240Z,17.17
2023-03-19T17:16:21.465Z,16.48
2023-03-19T17:18:49.353Z,16.90
2023-03-19T17:21:22.883Z,17.90
2023-03-19T17:26:23.154Z,17.33
2023-03-19T17:28:50.378Z,19.10
2023-03-19T17:31:22.933Z,17.95
2023-03-19T17:33:51.608Z,17.30
2023-03-19T17:36:19.208Z,18.70
2023-03-19T17:38:46.339Z,18.02
2023-03-19T17:41:19.763Z,18.38
2023-03-19T17:43:47.512Z,17.23
2023-03-19T17:46:20.532Z,18.20
2023-03-19T17:48:49.313Z,17.60
2023-03-19T17:51:17.350Z,19.98
2023-03-19T17:53:48.898Z,19.40
2023-03-19T17:56:19.052Z,18.80
2023-03-19T17:58:49.852Z,15.95
2023-03-19T18:01:22.475Z,21.00
2023-03-19T18:03:51.067Z,17.70
2023-03-19T18:06:20.854Z,18.40
2023-03-19T18:08:48.559Z,17.27
2023-03-19T18:11:15.688Z,16.73
2023-03-19T18:13:43.497Z,18.17
2023-03-19T18:16:25.856Z,17.90
2023-03-19T18:18:53.062Z,17.83
2023-03-19T18:21:20.272Z,17.20
2023-03-19T18:23:47.694Z,19.58
2023-03-19T18:26:16.994Z,18.80
2023-03-19T18:28:44.584Z,18.80
2023-03-19T18:31:18.126Z,19.42
2023-03-19T18:33:49.887Z,17.65
2023-03-19T18:36:27.949Z,17.00
2023-03-19T18:38:55.896Z,18.92
2023-03-19T18:41:25.327Z,19.15
2023-03-19T18:43:52.458Z,18.35
2023-03-19T18:46:31.937Z,17.45
2023-03-19T18:49:24.003Z,18.10
2023-03-19T18:52:02.220Z,17.63
2023-03-19T18:54:33.135Z,17.08
2023-03-19T18:57:01.823Z,18.00
2023-03-19T18:59:32.811Z,18.23
2023-03-19T19:02:14.461Z,17.95
2023-03-19T19:04:41.789Z,18.20
2023-03-19T19:07:13.284Z,20.65
2023-03-19T19:09:40.382Z,19.40
2023-03-19T19:12:09.452Z,17.42
2023-03-19T19:14:36.588Z,17.45
2023-03-19T19:17:03.963Z,17.38
2023-03-19T19:19:31.772Z,17.63
2023-03-19T19:22:00.000Z,20.38
2023-03-19T19:24:27.005Z,18.23
2023-03-19T19:26:54.530Z,19.65
2023-03-19T19:29:26.590Z,18.38
2023-03-19T19:31:54.721Z,18.25
2023-03-19T19:34:22.711Z,18.58
2023-03-19T19:36:51.078Z,19.00
2023-03-19T19:39:18.310Z,17.95
2023-03-19T19:41:46.484Z,18.05
2023-03-19T19:44:20.093Z,19.05
2023-03-19T19:46:47.199Z,17.20
2023-03-19T19:49:14.841Z,18.80
2023-03-19T19:51:41.961Z,18.45
2023-03-19T19:54:09.206Z,20.77
2023-03-19T19:56:37.274Z,20.42
2023-03-19T19:59:06.578Z,19.52
2023-03-19T20:01:35.548Z,19.23
2023-03-19T20:04:04.217Z,20.75
2023-03-19T20:06:31.881Z,19.73
2023-03-19T20:08:59.449Z,21.02
2023-03-19T20:11:26.801Z,18.98
2023-03-19T20:13:55.710Z,20.35
2023-03-19T20:16:25.342Z,17.95
2023-03-19T20:18:54.619Z,19.15
2023-03-19T20:21:23.093Z,17.20
2023-03-19T20:23:55.049Z,19.30
2023-03-19T20:26:24.764Z,17.77
2023-03-19T20:28:52.891Z,16.33
2023-03-19T20:31:29.968Z,16.02
2023-03-19T20:33:57.752Z,16.75
2023-03-19T20:36:26.617Z,19.17
2023-03-19T20:38:54.036Z,17.90
2023-03-19T20:41:27.165Z,16.23
2023-03-19T20:43:55.522Z,16.55
2023-03-19T20:46:23.292Z,16.08
2023-03-19T20:48:50.621Z,18.48
2023-03-19T20:51:31.395Z,18.08
2023-03-19T20:53:59.723Z,18.90
2023-03-19T20:56:26.997Z,19.70
2023-03-19T20:58:54.223Z,17.83
2023-03-19T21:01:21.691Z,18.52
2023-03-19T21:03:48.800Z,14.30
2023-03-19T21:06:19.226Z,13.80
2023-03-19T21:08:53.344Z,13.65
2023-03-19T21:11:22.545Z,12.55
2023-03-19T21:13:52.646Z,14.20
2023-03-19T21:16:25.720Z,16.15
2023-03-19T21:18:54.015Z,14.32
2023-03-19T21:21:31.305Z,15.70
2023-03-19T21:24:21.656Z,13.38
2023-03-19T21:26:48.784Z,12.80
2023-03-19T21:29:30.804Z,13.27
2023-03-19T21:31:58.368Z,12.98
2023-03-19T21:34:25.637Z,12.13
2023-03-19T21:36:52.722Z,12.13
2023-03-19T21:39:19.737Z,8.65
2023-03-19T21:41:46.923Z,10.00
2023-03-19T21:44:18.311Z,10.30
2023-03-19T21:46:46.996Z,8.98
2023-03-19T21:49:15.109Z,9.57
2023-03-19T21:51:44.838Z,7.55
2023-03-19T21:54:11.924Z,8.30
2023-03-19T21:56:41.533Z,8.77
2023-03-19T21:59:32.195Z,7.70
2023-03-19T22:02:00.734Z,7.93
2023-03-19T22:04:27.856Z,9.07
2023-03-19T22:06:54.868Z,8.77
2023-03-19T22:09:22.527Z,8.20
2023-03-19T22:11:49.539Z,8.13
2023-03-19T22:14:20.230Z,7.97
2023-03-19T22:16:52.395Z,7.35
2023-03-19T22:19:19.868Z,8.13
2023-03-19T22:21:47.567Z,7.53
2023-03-19T22:24:14.584Z,7.10
2023-03-19T22:26:43.424Z,6.68
2023-03-19T22:29:25.481Z,6.72
2023-03-19T22:31:53.608Z,6.35
2023-03-19T22:36:50.542Z,6.97
2023-03-19T22:39:17.825Z,7.60
2023-03-19T22:41:48.119Z,6.50
2023-03-19T22:44:29.706Z,6.88
2023-03-19T22:46:59.681Z,6.93
2023-03-19T22:49:27.988Z,6.60
2023-03-19T22:51:56.509Z,7.70
2023-03-19T22:54:23.742Z,7.00
2023-03-19T22:56:51.100Z,6.72
2023-03-19T22:59:18.713Z,7.22
2023-03-19T23:01:47.643Z,6.90
2023-03-19T23:04:18.439Z,7.93
2023-03-19T23:06:45.890Z,7.28
2023-03-19T23:09:19.139Z,7.50
2023-03-19T23:11:48.157Z,7.30
2023-03-19T23:14:28.456Z,7.07
2023-03-19T23:17:01.557Z,7.55
2023-03-19T23:19:33.929Z,6.22
2023-03-19T23:22:04.920Z,6.65
2023-03-19T23:24:32.498Z,5.95
2023-03-19T23:27:02.597Z,4.97
2023-03-19T23:29:34.191Z,4.95
2023-03-19T23:32:01.615Z,4.63
2023-03-19T23:34:28.920Z,4.10
2023-03-19T23:36:58.040Z,4.63
2023-03-19T23:39:25.625Z,4.28
2023-03-19T23:41:56.755Z,4.28
2023-03-19T23:44:24.152Z,4.53
2023-03-19T23:46:52.068Z,4.95
2023-03-19T23:49:29.014Z,4.53
2023-03-19T23:51:57.476Z,4.18
2023-03-19T23:54:32.707Z,4.82
2023-03-19T23:57:03.056Z,4.28
2023-03-19T23:59:34.501Z,4.68
